Time;durP1;ratioP1;P1;durP2;ratioP2;P2;SDS_P1;SDS_P2;PMS_P1;PMS_P2;Temp;Humidity;BMP_temperature;BMP_pressure;BME280_temperature;BME280_humidity;BME280_pressure;Samples;Min_cycle;Max_cycle;Signal;HPM_P1;HPM_P2
2021/08/13 00:00:07;;;;;;;3.10;0.90;;;16.40;99.90;;;;;;5096550;28;20073;-76
2021/08/13 00:02:32;;;;;;;3.80;1.52;;;16.30;99.90;;;;;;5078047;28;20110;-77
2021/08/13 00:04:58;;;;;;;3.55;1.77;;;16.40;99.90;;;;;;5078166;28;20016;-78
2021/08/13 00:07:23;;;;;;;2.53;1.00;;;16.70;99.90;;;;;;5078762;28;20017;-79
2021/08/13 00:09:49;;;;;;;4.57;1.77;;;16.40;99.90;;;;;;5078400;28;20466;-79
2021/08/13 00:12:14;;;;;;;3.13;0.98;;;17.80;99.90;;;;;;5077719;28;20069;-79
2021/08/13 00:14:40;;;;;;;4.93;1.40;;;16.30;99.90;;;;;;5078007;28;20077;-79
2021/08/13 00:17:05;;;;;;;10.05;1.60;;;16.30;99.90;;;;;;5078030;28;20028;-79
2021/08/13 00:19:33;;;;;;;2.05;1.40;;;16.30;99.90;;;;;;5078056;28;20508;-79
2021/08/13 00:21:59;;;;;;;3.03;1.48;;;16.20;99.90;;;;;;5077960;28;20046;-79
2021/08/13 00:24:25;;;;;;;3.03;1.33;;;16.20;99.90;;;;;;5078300;28;20020;-77
2021/08/13 00:26:50;;;;;;;7.22;1.38;;;16.20;99.90;;;;;;5096686;28;20023;-78
2021/08/13 00:29:16;;;;;;;2.30;1.35;;;16.20;99.90;;;;;;5096114;28;20051;-78
2021/08/13 00:31:41;;;;;;;2.78;1.20;;;16.20;99.90;;;;;;5096237;28;20045;-78
2021/08/13 00:34:07;;;;;;;4.07;2.30;;;16.20;99.90;;;;;;5096649;28;20027;-78
2021/08/13 00:36:32;;;;;;;5.35;1.30;;;16.20;99.90;;;;;;5095967;28;20040;-78
2021/08/13 00:39:02;;;;;;;3.00;1.30;;;16.10;99.90;;;;;;5078154;28;20030;-78
2021/08/13 00:41:27;;;;;;;4.35;1.35;;;16.10;99.90;;;;;;5077667;28;20026;-78
2021/08/13 00:43:54;;;;;;;2.35;1.38;;;16.10;99.90;;;;;;5077983;28;20107;-78
2021/08/13 00:46:20;;;;;;;2.42;1.40;;;16.10;99.90;;;;;;5077753;28;20500;-77
2021/08/13 00:48:45;;;;;;;4.18;1.30;;;16.10;99.90;;;;;;5095367;28;20020;-77
2021/08/13 00:51:11;;;;;;;4.80;1.90;;;16.00;99.90;;;;;;5095575;28;20028;-77
2021/08/13 00:53:36;;;;;;;3.65;1.77;;;16.00;99.90;;;;;;5077176;28;20024;-77
2021/08/13 00:56:02;;;;;;;3.58;1.45;;;16.00;99.90;;;;;;5077126;28;20028;-77
2021/08/13 00:58:28;;;;;;;4.45;1.35;;;16.00;99.90;;;;;;5095233;28;20020;-77
2021/08/13 01:00:54;;;;;;;3.55;1.30;;;15.90;99.90;;;;;;5077170;28;20012;-77
2021/08/13 01:03:20;;;;;;;2.20;1.13;;;15.90;99.90;;;;;;5076863;28;20027;-76
2021/08/13 01:05:46;;;;;;;3.55;1.80;;;15.90;99.90;;;;;;5094968;28;20020;-76
2021/08/13 01:08:11;;;;;;;2.47;1.65;;;15.90;99.90;;;;;;5095209;28;20023;-76
2021/08/13 01:11:07;;;;;;;3.67;1.65;;;15.90;99.90;;;;;;5096397;28;20032;-77
2021/08/13 01:13:42;;;;;;;6.57;2.08;;;16.00;99.90;;;;;;5085159;28;20517;-79
2021/08/13 01:16:08;;;;;;;4.97;2.63;;;16.00;99.90;;;;;;5077507;28;20031;-78
2021/08/13 01:18:44;;;;;;;5.78;2.30;;;16.00;99.90;;;;;;5076889;28;20020;-78
2021/08/13 01:21:38;;;;;;;6.30;2.60;;;16.00;99.90;;;;;;5077202;28;20401;-78
2021/08/13 01:24:23;;;;;;;3.55;1.75;;;16.00;99.90;;;;;;5094789;28;20431;-76
2021/08/13 01:27:12;;;;;;;4.65;2.20;;;16.10;99.90;;;;;;5076461;28;20024;-76
2021/08/13 01:29:41;;;;;;;;;;;16.00;99.90;;;;;;5076789;28;20028;-76
2021/08/13 01:32:12;;;;;;;7.82;2.40;;;15.90;99.90;;;;;;5094683;28;19904;-76
2021/08/13 01:34:47;;;;;;;5.55;2.50;;;16.10;99.90;;;;;;5076142;28;20036;-76
2021/08/13 01:37:14;;;;;;;4.40;2.38;;;16.00;99.90;;;;;;5076269;28;20492;-76
2021/08/13 01:39:42;;;;;;;5.20;2.20;;;16.00;99.90;;;;;;5076696;28;20020;-77
2021/08/13 01:42:09;;;;;;;5.63;2.58;;;16.00;99.90;;;;;;5094311;28;20031;-76
2021/08/13 01:44:36;;;;;;;5.80;3.30;;;16.00;99.90;;;;;;5076175;28;20487;-77
2021/08/13 01:47:02;;;;;;;5.90;2.97;;;16.00;99.90;;;;;;5076150;28;20397;-77
2021/08/13 01:49:30;;;;;;;8.32;4.13;;;16.00;99.90;;;;;;5094815;28;20028;-77
2021/08/13 01:51:57;;;;;;;11.27;3.95;;;16.00;99.90;;;;;;5076276;28;20020;-77
2021/08/13 01:54:23;;;;;;;8.25;3.33;;;16.00;99.90;;;;;;5094222;28;20106;-77
2021/08/13 01:56:50;;;;;;;10.25;3.95;;;16.00;99.90;;;;;;5094112;28;20098;-76
2021/08/13 01:59:16;;;;;;;12.80;4.43;;;16.10;99.90;;;;;;5076086;28;20020;-78
2021/08/13 02:01:42;;;;;;;11.73;4.65;;;16.00;99.90;;;;;;5094828;28;20055;-78
2021/08/13 02:04:08;;;;;;;11.40;4.85;;;16.10;99.90;;;;;;5096001;28;20040;-77
2021/08/13 02:06:35;;;;;;;11.90;4.90;;;16.10;99.90;;;;;;5078109;28;20051;-78
2021/08/13 02:09:02;;;;;;;10.23;4.32;;;16.10;99.90;;;;;;5076159;28;20120;-76
2021/08/13 02:11:28;;;;;;;8.68;4.40;;;16.10;99.90;;;;;;5094337;28;20466;-76
2021/08/13 02:13:55;;;;;;;10.95;4.38;;;16.10;99.90;;;;;;5075610;28;20031;-76
2021/08/13 02:16:28;;;;;;;12.35;5.63;;;16.10;99.90;;;;;;5093773;28;20089;-76
2021/08/13 02:19:12;;;;;;;12.13;5.68;;;16.10;99.90;;;;;;5075516;28;20024;-77
2021/08/13 02:21:38;;;;;;;10.02;5.22;;;16.10;99.90;;;;;;5075434;28;20386;-76
2021/08/13 02:24:04;;;;;;;11.23;5.25;;;16.10;99.90;;;;;;5075468;28;20017;-76
2021/08/13 02:26:30;;;;;;;10.85;5.35;;;15.90;99.90;;;;;;5093601;28;20035;-76
2021/08/13 02:28:56;;;;;;;12.88;5.95;;;16.00;99.90;;;;;;5093551;28;20505;-76
2021/08/13 02:31:21;;;;;;;11.30;5.57;;;15.80;99.90;;;;;;5093443;28;20122;-77
2021/08/13 02:33:47;;;;;;;9.52;5.15;;;16.00;99.90;;;;;;5093488;28;20020;-76
2021/08/13 02:36:15;;;;;;;12.30;5.82;;;15.80;99.90;;;;;;5075386;28;20042;-76
2021/08/13 02:38:59;;;;;;;11.30;5.43;;;15.90;99.90;;;;;;5075191;28;20032;-76
2021/08/13 02:41:30;;;;;;;11.48;4.70;;;15.90;99.90;;;;;;5093442;28;20032;-78
2021/08/13 02:44:03;;;;;;;12.85;5.15;;;16.00;99.90;;;;;;5075641;28;20473;-79
2021/08/13 02:46:37;;;;;;;11.80;4.97;;;15.80;99.90;;;;;;5075386;28;20016;-78
2021/08/13 02:49:06;;;;;;;11.40;5.45;;;15.80;99.90;;;;;;5093741;28;20549;-76
2021/08/13 02:51:33;;;;;;;;;;;15.80;99.90;;;;;;5093695;28;20020;-76
2021/08/13 02:53:59;;;;;;;11.38;4.68;;;15.70;99.90;;;;;;5093340;28;20289;-77
2021/08/13 02:56:32;;;;;;;10.73;4.50;;;15.70;99.90;;;;;;5075564;28;20031;-77
2021/08/13 02:59:05;;;;;;;10.38;4.72;;;15.70;99.90;;;;;;5093544;28;20032;-77
2021/08/13 03:01:34;;;;;;;10.80;5.00;;;15.70;99.90;;;;;;5093472;28;20077;-77
2021/08/13 03:04:02;;;;;;;9.20;4.20;;;15.70;99.90;;;;;;5075491;28;20063;-78
2021/08/13 03:06:32;;;;;;;14.10;5.43;;;15.60;99.90;;;;;;5093415;28;20024;-76
2021/08/13 03:08:59;;;;;;;11.18;4.20;;;15.60;99.90;;;;;;5093705;28;20035;-77
2021/08/13 03:11:26;;;;;;;10.13;4.32;;;15.60;99.90;;;;;;5093632;28;20390;-77
2021/08/13 03:13:53;;;;;;;11.63;5.13;;;15.60;99.90;;;;;;5093139;28;20020;-77
2021/08/13 03:16:19;;;;;;;9.48;4.43;;;15.60;99.90;;;;;;5093565;28;20071;-78
2021/08/13 03:18:46;;;;;;;8.95;4.28;;;15.60;99.90;;;;;;5093330;28;20137;-78
2021/08/13 03:21:12;;;;;;;10.02;4.18;;;15.50;99.90;;;;;;5093139;28;20042;-78
2021/08/13 03:23:39;;;;;;;10.57;4.45;;;15.50;99.90;;;;;;5093256;28;20024;-79
2021/08/13 03:26:06;;;;;;;7.70;3.28;;;15.40;99.90;;;;;;5093411;28;20023;-77
2021/08/13 03:28:34;;;;;;;11.15;4.63;;;15.40;99.90;;;;;;5093713;28;20020;-77
2021/08/13 03:30:59;;;;;;;9.43;3.92;;;15.40;99.90;;;;;;5092938;28;20020;-76
2021/08/13 03:33:26;;;;;;;10.68;3.75;;;15.30;99.90;;;;;;5074787;28;20077;-79
2021/08/13 03:35:51;;;;;;;10.13;4.32;;;15.30;99.90;;;;;;5075256;28;20024;-76
2021/08/13 03:38:17;;;;;;;10.88;4.68;;;15.30;99.90;;;;;;5093051;28;20146;-76
2021/08/13 03:40:43;;;;;;;13.32;4.97;;;15.30;99.90;;;;;;5093280;28;20164;-76
2021/08/13 03:43:08;;;;;;;13.88;5.88;;;15.30;99.90;;;;;;5075345;28;20031;-77
2021/08/13 03:45:35;;;;;;;11.25;4.78;;;15.30;99.90;;;;;;5076107;28;20016;-78
2021/08/13 03:48:01;;;;;;;9.20;4.65;;;15.30;99.90;;;;;;5077800;28;20610;-76
2021/08/13 03:50:26;;;;;;;10.43;5.30;;;15.30;99.90;;;;;;5097106;28;20024;-76
2021/08/13 03:52:52;;;;;;;10.68;4.40;;;15.30;99.90;;;;;;5097595;28;20035;-77
2021/08/13 03:55:17;;;;;;;12.18;5.60;;;15.30;99.90;;;;;;5098379;28;20031;-77
2021/08/13 03:57:43;;;;;;;10.65;4.85;;;15.20;99.90;;;;;;5080280;28;20069;-77
2021/08/13 04:00:10;;;;;;;10.60;4.65;;;15.30;99.90;;;;;;5097821;28;20077;-77
2021/08/13 04:02:36;;;;;;;11.27;4.97;;;15.30;99.90;;;;;;5078430;28;20034;-78
2021/08/13 04:05:03;;;;;;;11.40;5.18;;;15.20;99.90;;;;;;5097634;28;20020;-77
2021/08/13 04:07:29;;;;;;;16.15;5.38;;;15.20;99.90;;;;;;5098051;28;20409;-77
2021/08/13 04:09:54;;;;;;;10.75;5.32;;;15.20;99.90;;;;;;5098009;28;20016;-77
2021/08/13 04:12:20;;;;;;;10.60;5.28;;;15.20;99.90;;;;;;5098746;28;20359;-76
2021/08/13 04:14:46;;;;;;;14.15;5.03;;;15.20;99.90;;;;;;5096264;28;20461;-76
2021/08/13 04:17:11;;;;;;;15.13;5.13;;;15.20;99.90;;;;;;5095907;28;20122;-76
2021/08/13 04:19:37;;;;;;;8.50;3.97;;;15.40;99.90;;;;;;5077860;28;20028;-76
2021/08/13 04:22:04;;;;;;;11.13;4.93;;;15.20;99.90;;;;;;5095768;28;20024;-76
2021/08/13 04:24:33;;;;;;;12.20;4.70;;;15.10;99.90;;;;;;5095849;28;20085;-76
2021/08/13 04:26:59;;;;;;;11.32;5.45;;;15.10;99.90;;;;;;5095850;28;20047;-77
2021/08/13 04:29:24;;;;;;;12.73;4.78;;;15.10;99.90;;;;;;5077563;28;20445;-77
2021/08/13 04:31:49;;;;;;;10.15;5.13;;;15.10;99.90;;;;;;5096200;28;20032;-79
2021/08/13 04:34:15;;;;;;;11.07;4.80;;;15.10;99.90;;;;;;5077674;28;20090;-77
2021/08/13 04:36:41;;;;;;;11.18;5.10;;;15.10;99.90;;;;;;5078423;28;20032;-78
2021/08/13 04:39:06;;;;;;;10.23;4.65;;;15.10;99.90;;;;;;5077868;28;20067;-78
2021/08/13 04:41:32;;;;;;;17.35;5.88;;;15.10;99.90;;;;;;5096348;28;20024;-78
2021/08/13 04:43:58;;;;;;;12.70;5.43;;;15.10;99.90;;;;;;5096395;28;20052;-78
2021/08/13 04:46:23;;;;;;;12.95;5.55;;;15.20;99.90;;;;;;5078099;28;20016;-79
2021/08/13 04:48:49;;;;;;;12.40;5.53;;;15.30;99.90;;;;;;5095978;28;20056;-78
2021/08/13 04:51:14;;;;;;;12.57;5.57;;;15.40;99.90;;;;;;5095662;28;20027;-78
2021/08/13 04:53:40;;;;;;;11.18;4.88;;;15.50;99.90;;;;;;5077592;28;20028;-78
2021/08/13 04:56:05;;;;;;;11.13;5.18;;;15.60;99.90;;;;;;5095802;28;20017;-78
2021/08/13 04:58:31;;;;;;;11.35;4.60;;;15.70;99.90;;;;;;5076299;28;20016;-78
2021/08/13 05:00:57;;;;;;;11.23;5.25;;;15.80;99.90;;;;;;5077232;28;20051;-78
2021/08/13 05:03:22;;;;;;;12.23;5.05;;;16.00;99.90;;;;;;5095422;28;20444;-78
2021/08/13 05:05:48;;;;;;;10.70;4.43;;;16.00;99.90;;;;;;5095364;28;20024;-77
2021/08/13 05:08:14;;;;;;;10.10;4.20;;;16.10;99.90;;;;;;5077610;28;20046;-77
2021/08/13 05:10:39;;;;;;;11.30;4.53;;;16.10;99.90;;;;;;5096149;28;20103;-77
2021/08/13 05:13:06;;;;;;;12.00;4.38;;;16.20;99.90;;;;;;5078485;28;20051;-78
2021/08/13 05:15:31;;;;;;;9.23;4.40;;;16.30;99.90;;;;;;5095224;28;20024;-77
2021/08/13 05:17:57;;;;;;;11.63;3.70;;;16.30;99.90;;;;;;5076708;28;20024;-77
2021/08/13 05:20:24;;;;;;;8.68;3.33;;;16.50;99.90;;;;;;5076605;28;20028;-77
2021/08/13 05:22:49;;;;;;;14.18;3.63;;;16.60;99.90;;;;;;5094787;28;20040;-77
2021/08/13 05:25:15;;;;;;;9.85;4.03;;;16.80;99.90;;;;;;5094782;28;20059;-77
2021/08/13 05:27:41;;;;;;;7.45;2.85;;;17.00;99.90;;;;;;5076958;28;20072;-79
2021/08/13 05:30:08;;;;;;;10.77;3.85;;;17.10;99.90;;;;;;5076957;28;20028;-79
2021/08/13 05:32:38;;;;;;;8.45;3.83;;;17.30;99.90;;;;;;5096837;28;20020;-78
2021/08/13 05:35:04;;;;;;;9.25;3.45;;;17.50;99.90;;;;;;5096232;28;20032;-77
2021/08/13 05:37:30;;;;;;;7.78;2.95;;;17.60;99.90;;;;;;5077670;28;20201;-77
2021/08/13 05:39:55;;;;;;;7.30;3.22;;;17.70;99.90;;;;;;5076380;28;20433;-77
2021/08/13 05:42:21;;;;;;;15.57;4.30;;;17.80;99.90;;;;;;5076319;28;20017;-77
2021/08/13 05:44:46;;;;;;;6.38;2.58;;;17.80;99.90;;;;;;5076790;28;20051;-79
2021/08/13 05:47:12;;;;;;;10.50;3.38;;;17.90;99.90;;;;;;5094981;28;20048;-78
2021/08/13 05:49:38;;;;;;;8.75;3.25;;;17.90;99.90;;;;;;5077715;28;20024;-78
2021/08/13 05:52:04;;;;;;;8.65;3.47;;;17.90;99.90;;;;;;5094416;28;20020;-76
2021/08/13 05:54:30;;;;;;;12.90;3.60;;;17.90;99.90;;;;;;5094056;28;20481;-76
2021/08/13 05:56:56;;;;;;;7.20;2.53;;;17.80;99.90;;;;;;5076315;28;20020;-79
2021/08/13 05:59:22;;;;;;;6.65;2.83;;;17.80;99.90;;;;;;5076350;28;20027;-77
2021/08/13 06:01:47;;;;;;;7.25;3.15;;;18.40;99.90;;;;;;5094243;28;20016;-77
2021/08/13 06:04:13;;;;;;;6.68;2.53;;;17.90;99.90;;;;;;5076148;28;20036;-78
2021/08/13 06:06:42;;;;;;;7.88;3.25;;;17.90;99.90;;;;;;5076365;28;20020;-78
2021/08/13 06:09:08;;;;;;;8.00;3.03;;;17.90;99.90;;;;;;5094639;28;20132;-79
2021/08/13 06:11:33;;;;;;;7.10;2.67;;;18.00;99.90;;;;;;5094324;28;20099;-77
2021/08/13 06:13:59;;;;;;;8.55;3.30;;;17.90;99.90;;;;;;5093831;28;20016;-78
2021/08/13 06:16:24;;;;;;;9.23;2.80;;;18.00;99.90;;;;;;5094933;28;20033;-79
2021/08/13 06:18:50;;;;;;;9.40;3.20;;;18.00;99.90;;;;;;5075898;28;20032;-79
2021/08/13 06:21:16;;;;;;;10.27;3.70;;;18.00;99.90;;;;;;5094401;28;20370;-79
2021/08/13 06:23:41;;;;;;;8.60;2.70;;;18.00;99.90;;;;;;5076079;28;20027;-79
2021/08/13 06:26:09;;;;;;;8.15;2.92;;;18.10;99.90;;;;;;5093929;28;20020;-79
2021/08/13 06:28:34;;;;;;;7.03;2.30;;;21.30;99.90;;;;;;5075873;28;20020;-78
2021/08/13 06:31:00;;;;;;;8.10;3.15;;;18.20;99.90;;;;;;5075517;28;20051;-76
2021/08/13 06:33:26;;;;;;;8.85;2.80;;;18.30;99.90;;;;;;5075327;28;20085;-76
2021/08/13 06:35:51;;;;;;;6.97;2.50;;;18.40;99.90;;;;;;5093376;28;20036;-78
2021/08/13 06:38:17;;;;;;;8.77;2.95;;;18.40;99.90;;;;;;5075690;28;20031;-78
2021/08/13 06:40:42;;;;;;;5.53;2.55;;;18.40;99.90;;;;;;5093684;28;20028;-78
2021/08/13 06:43:08;;;;;;;6.18;2.08;;;18.30;99.90;;;;;;5093609;28;20477;-78
2021/08/13 06:45:34;;;;;;;7.13;2.40;;;18.40;99.90;;;;;;5093658;28;20024;-78
2021/08/13 06:47:59;;;;;;;6.00;2.58;;;18.50;99.90;;;;;;5093758;28;20081;-78
2021/08/13 06:50:25;;;;;;;6.03;2.10;;;18.50;99.90;;;;;;5075478;28;20097;-77
2021/08/13 06:52:51;;;;;;;6.75;2.63;;;18.40;99.90;;;;;;5093857;28;20031;-78
2021/08/13 06:55:17;;;;;;;8.60;2.10;;;18.60;99.90;;;;;;5076663;28;20039;-76
2021/08/13 06:57:42;;;;;;;7.15;2.85;;;18.60;99.90;;;;;;5093260;28;20025;-75
2021/08/13 07:00:10;;;;;;;6.68;2.67;;;18.70;99.90;;;;;;5075071;28;20028;-75
2021/08/13 07:02:36;;;;;;;7.67;1.87;;;18.80;99.90;;;;;;5075123;28;20073;-75
2021/08/13 07:05:03;;;;;;;7.85;2.58;;;18.80;99.90;;;;;;5093744;28;20462;-75
2021/08/13 07:07:31;;;;;;;7.85;2.67;;;18.80;99.90;;;;;;5093444;28;20081;-76
2021/08/13 07:09:56;;;;;;;7.30;2.45;;;18.80;99.90;;;;;;5093729;28;20051;-79
2021/08/13 07:12:22;;;;;;;7.60;2.42;;;18.90;99.90;;;;;;5094058;28;20024;-77
2021/08/13 07:14:47;;;;;;;5.90;2.83;;;18.90;99.90;;;;;;5075292;28;20024;-78
2021/08/13 07:17:13;;;;;;;7.45;2.67;;;18.80;99.90;;;;;;5075083;28;20022;-75
2021/08/13 07:19:38;;;;;;;7.68;2.40;;;18.80;99.90;;;;;;5074784;28;20024;-75
2021/08/13 07:22:04;;;;;;;6.03;2.67;;;18.80;99.90;;;;;;5076641;28;20464;-75
2021/08/13 07:24:30;;;;;;;6.30;2.55;;;18.80;99.90;;;;;;5078854;28;20024;-77
2021/08/13 07:26:56;;;;;;;5.90;2.35;;;18.90;99.90;;;;;;5097118;28;20023;-78
2021/08/13 07:29:23;;;;;;;4.10;1.65;;;19.00;99.90;;;;;;5097312;28;20024;-78
2021/08/13 07:31:50;;;;;;;6.88;2.42;;;19.10;99.90;;;;;;5097469;28;20027;-77
2021/08/13 07:34:15;;;;;;;8.45;2.38;;;19.20;99.90;;;;;;5078903;28;20415;-78
2021/08/13 07:36:41;;;;;;;7.32;2.45;;;19.30;99.90;;;;;;5079092;28;20028;-78
2021/08/13 07:39:06;;;;;;;5.22;2.03;;;19.40;99.90;;;;;;5097012;28;20111;-78
2021/08/13 07:41:32;;;;;;;7.30;2.13;;;19.60;99.90;;;;;;5097268;28;20016;-78
2021/08/13 07:43:58;;;;;;;7.85;2.80;;;19.70;99.90;;;;;;5078666;28;20099;-76
2021/08/13 07:46:23;;;;;;;8.05;2.83;;;19.80;99.90;;;;;;5097230;28;20377;-77
2021/08/13 07:48:49;;;;;;;7.25;2.53;;;20.10;99.90;;;;;;5078540;28;20024;-77
2021/08/13 07:51:14;;;;;;;5.40;2.25;;;20.30;99.90;;;;;;5096926;28;20042;-78
2021/08/13 07:53:40;;;;;;;5.75;2.38;;;20.20;99.90;;;;;;5097045;28;20514;-78
2021/08/13 07:56:06;;;;;;;5.38;1.83;;;20.30;99.90;;;;;;5097439;28;20027;-78
2021/08/13 07:58:31;;;;;;;6.18;2.00;;;20.20;99.90;;;;;;5097360;28;20017;-77
2021/08/13 08:00:57;;;;;;;7.47;2.70;;;20.10;99.90;;;;;;5096308;28;20359;-77
2021/08/13 08:03:23;;;;;;;9.02;2.28;;;20.10;99.90;;;;;;5096312;28;20028;-76
2021/08/13 08:05:48;;;;;;;6.78;2.17;;;20.20;99.90;;;;;;5096695;28;20031;-75
2021/08/13 08:08:14;;;;;;;6.03;3.08;;;20.10;99.90;;;;;;5096618;28;20415;-75
2021/08/13 08:10:45;;;;;;;3.85;1.80;;;20.20;99.90;;;;;;5077973;28;20016;-76
2021/08/13 08:13:11;;;;;;;5.82;1.58;;;20.40;99.90;;;;;;5077856;28;20039;-75
2021/08/13 08:15:36;;;;;;;3.92;1.50;;;20.50;99.90;;;;;;5077771;28;20024;-75
2021/08/13 08:18:02;;;;;;;3.17;1.23;;;20.60;99.90;;;;;;5096706;28;20050;-78
2021/08/13 08:20:28;;;;;;;6.03;1.27;;;20.30;99.90;;;;;;5078385;28;20078;-78
2021/08/13 08:22:53;;;;;;;4.05;1.30;;;20.20;99.90;;;;;;5096348;28;20024;-78
2021/08/13 08:25:19;;;;;;;5.20;0.73;;;20.10;99.90;;;;;;5096656;28;20469;-78
2021/08/13 08:27:44;;;;;;;6.90;1.05;;;20.10;99.90;;;;;;5078217;28;20478;-79
2021/08/13 08:30:10;;;;;;;3.08;0.52;;;20.90;99.90;;;;;;5078684;28;20028;-78
2021/08/13 08:32:36;;;;;;;1.77;0.43;;;20.50;99.90;;;;;;5096514;28;20028;-78
2021/08/13 08:35:02;;;;;;;2.00;0.50;;;20.60;99.90;;;;;;5078331;28;20392;-78
2021/08/13 08:37:27;;;;;;;4.85;0.38;;;20.60;99.90;;;;;;5078051;28;20026;-76
2021/08/13 08:39:53;;;;;;;3.22;0.57;;;20.90;99.90;;;;;;5095701;28;20028;-76
2021/08/13 08:42:20;;;;;;;2.67;0.40;;;21.10;99.90;;;;;;5095451;28;20020;-75
2021/08/13 08:44:46;;;;;;;3.75;0.30;;;21.30;99.90;;;;;;5095693;28;20475;-76
2021/08/13 08:47:12;;;;;;;3.45;0.25;;;21.30;99.90;;;;;;5095417;28;20516;-75
2021/08/13 08:49:39;;;;;;;2.78;0.55;;;21.40;99.90;;;;;;5077169;28;20024;-76
2021/08/13 08:52:07;;;;;;;6.22;0.73;;;21.30;99.90;;;;;;5077085;28;20024;-76
2021/08/13 08:54:34;;;;;;;3.00;0.70;;;21.40;99.90;;;;;;5095904;28;20422;-79
2021/08/13 08:57:02;;;;;;;4.15;0.50;;;21.50;99.90;;;;;;5095992;28;20390;-79
2021/08/13 08:59:28;;;;;;;3.60;0.43;;;21.50;99.90;;;;;;5096672;28;20473;-79
2021/08/13 09:01:53;;;;;;;6.28;0.57;;;21.70;99.90;;;;;;5096146;28;20020;-79
2021/08/13 09:04:19;;;;;;;3.80;0.45;;;21.90;99.90;;;;;;5096358;28;20096;-79
2021/08/13 09:06:44;;;;;;;5.60;0.57;;;21.90;99.90;;;;;;5077608;28;20055;-76
2021/08/13 09:09:10;;;;;;;2.78;0.43;;;22.10;99.90;;;;;;5094918;28;20035;-76
2021/08/13 09:11:38;;;;;;;6.63;0.63;;;22.20;99.90;;;;;;5076668;28;20028;-76
2021/08/13 09:14:06;;;;;;;2.85;1.25;;;22.20;99.90;;;;;;5094978;28;20102;-76
2021/08/13 09:16:33;;;;;;;1.88;0.73;;;22.50;99.90;;;;;;5094698;28;20481;-76
2021/08/13 09:19:01;;;;;;;2.00;0.55;;;22.60;99.90;;;;;;5094860;28;20027;-77
2021/08/13 09:21:27;;;;;;;;;;;22.50;99.90;;;;;;5077091;28;20363;-76
2021/08/13 09:23:54;;;;;;;3.83;0.70;;;22.30;99.90;;;;;;5076463;28;20010;-75
2021/08/13 09:26:24;;;;;;;3.70;0.40;;;22.50;99.90;;;;;;5095012;28;20474;-78
2021/08/13 09:29:21;;;;;;;3.97;0.30;;;22.70;99.90;;;;;;5095086;28;20020;-78
2021/08/13 09:31:51;;;;;;;3.83;0.50;;;22.70;99.90;;;;;;5094257;28;20396;-79
2021/08/13 09:34:27;;;;;;;9.68;1.30;;;22.70;99.90;;;;;;5094837;28;20104;-76
2021/08/13 09:36:55;;;;;;;3.05;0.50;;;22.70;99.90;;;;;;5094590;28;20020;-76
2021/08/13 09:39:28;;;;;;;2.75;0.40;;;22.50;99.90;;;;;;5094427;28;20020;-76
2021/08/13 09:41:56;;;;;;;4.38;0.50;;;22.50;99.90;;;;;;5076614;28;20103;-78
2021/08/13 09:44:24;;;;;;;1.92;0.82;;;22.50;99.90;;;;;;5076370;28;20062;-79
2021/08/13 09:46:56;;;;;;;1.77;0.43;;;22.40;99.90;;;;;;5077022;28;20030;-79
2021/08/13 09:49:22;;;;;;;2.88;0.43;;;22.20;99.90;;;;;;5095516;28;20485;-79
2021/08/13 09:51:47;;;;;;;1.50;0.45;;;22.30;99.90;;;;;;5076313;28;20054;-80
2021/08/13 09:54:13;;;;;;;1.88;0.68;;;22.40;99.90;;;;;;5094506;28;20039;-78
2021/08/13 09:56:40;;;;;;;4.38;0.63;;;22.50;99.90;;;;;;5094887;28;20032;-76
2021/08/13 09:59:22;;;;;;;3.17;0.45;;;22.30;99.90;;;;;;5075648;28;20044;-75
2021/08/13 10:01:50;;;;;;;3.78;0.70;;;22.40;99.90;;;;;;5075639;28;20051;-74
2021/08/13 10:04:31;;;;;;;3.73;0.47;;;22.30;99.90;;;;;;5075797;28;20043;-76
2021/08/13 10:06:56;;;;;;;3.17;0.60;;;22.10;99.90;;;;;;5094400;28;20257;-80
2021/08/13 10:09:25;;;;;;;3.97;0.65;;;21.90;99.90;;;;;;5094067;28;20435;-74
2021/08/13 10:12:01;;;;;;;2.13;0.70;;;22.10;99.90;;;;;;5075573;28;20034;-74
2021/08/13 10:14:34;;;;;;;4.10;0.52;;;22.50;99.90;;;;;;5075633;28;20396;-77
2021/08/13 10:17:11;;;;;;;3.42;0.57;;;22.90;99.90;;;;;;5094379;28;20043;-76
2021/08/13 10:19:42;;;;;;;5.47;0.73;;;23.10;99.90;;;;;;5093622;28;20028;-76
2021/08/13 10:22:08;;;;;;;4.15;0.70;;;23.20;99.90;;;;;;5093977;28;20453;-77
2021/08/13 10:24:35;;;;;;;1.88;0.57;;;23.40;99.90;;;;;;5075924;28;20040;-77
2021/08/13 10:27:03;;;;;;;2.42;0.22;;;23.40;99.90;;;;;;5093842;28;20089;-77
2021/08/13 10:29:29;;;;;;;2.60;0.50;;;23.70;99.90;;;;;;5076221;28;20035;-79
2021/08/13 10:31:55;;;;;;;0.73;0.08;;;23.80;99.90;;;;;;5076040;28;20032;-79
2021/08/13 10:34:21;;;;;;;1.30;0.10;;;23.70;99.90;;;;;;5094191;28;20028;-79
2021/08/13 10:36:48;;;;;;;1.67;0.20;;;24.70;96.40;;;;;;5075949;28;20035;-80
2021/08/13 10:39:17;;;;;;;2.63;0.10;;;23.50;97.40;;;;;;5093798;28;20103;-80
2021/08/13 10:41:44;;;;;;;1.70;0.20;;;23.40;97.40;;;;;;5093813;28;20026;-80
2021/08/13 10:44:12;;;;;;;2.65;0.20;;;23.50;97.70;;;;;;5093973;28;20030;-80
2021/08/13 10:46:39;;;;;;;2.78;0.35;;;23.70;96.10;;;;;;5075429;28;20073;-77
2021/08/13 10:49:08;;;;;;;4.50;0.47;;;24.00;97.60;;;;;;5093670;28;20024;-78
2021/08/13 10:51:34;;;;;;;3.42;0.22;;;25.80;98.30;;;;;;5076076;28;20016;-78
2021/08/13 10:54:08;;;;;;;2.70;0.30;;;24.80;95.70;;;;;;5093816;28;20078;-77
2021/08/13 10:56:44;;;;;;;1.60;0.15;;;24.60;92.90;;;;;;5095014;28;20518;-76
2021/08/13 10:59:11;;;;;;;3.97;0.43;;;24.30;90.20;;;;;;5079628;28;20465;-77
2021/08/13 11:01:56;;;;;;;0.95;0.10;;;24.10;92.80;;;;;;5079979;28;20107;-79
2021/08/13 11:04:38;;;;;;;1.58;0.00;;;23.90;92.60;;;;;;5097154;28;20036;-76
2021/08/13 11:07:04;;;;;;;3.65;0.30;;;23.60;88.40;;;;;;5079391;28;20559;-77
2021/08/13 11:09:37;;;;;;;3.92;0.30;;;23.40;89.70;;;;;;5079160;28;20041;-76
2021/08/13 11:12:10;;;;;;;1.88;0.10;;;23.20;94.30;;;;;;5079397;28;20020;-76
2021/08/13 11:14:47;;;;;;;6.15;0.75;;;23.30;93.40;;;;;;5097999;28;20032;-79
2021/08/13 11:17:39;;;;;;;3.43;0.20;;;23.30;91.80;;;;;;5097909;28;20024;-76
2021/08/13 11:20:08;;;;;;;3.45;0.00;;;23.30;90.90;;;;;;5079726;28;20028;-79
2021/08/13 11:22:35;;;;;;;3.80;0.35;;;23.50;94.80;;;;;;5097967;28;20020;-78
2021/08/13 11:25:03;;;;;;;1.70;0.17;;;23.40;91.60;;;;;;5097640;28;20028;-78
2021/08/13 11:27:28;;;;;;;4.18;0.80;;;23.50;94.40;;;;;;5098114;28;20039;-79
2021/08/13 11:29:54;;;;;;;3.03;0.50;;;23.40;91.00;;;;;;5079602;28;20028;-79
2021/08/13 11:32:19;;;;;;;2.72;0.38;;;23.20;91.00;;;;;;5079561;28;20444;-79
2021/08/13 11:35:11;;;;;;;2.30;0.40;;;23.30;94.20;;;;;;5097487;28;20028;-78
2021/08/13 11:37:38;;;;;;;4.35;0.00;;;23.00;90.90;;;;;;5075579;28;20131;-78
2021/08/13 11:40:05;;;;;;;4.65;0.55;;;22.90;93.00;;;;;;5097214;28;20051;-78
2021/08/13 11:42:32;;;;;;;1.27;0.30;;;23.00;91.20;;;;;;5097447;28;20069;-79
2021/08/13 11:45:05;;;;;;;3.22;0.17;;;23.10;91.50;;;;;;5097502;28;20024;-79
2021/08/13 11:47:31;;;;;;;7.43;0.80;;;22.90;91.30;;;;;;5097127;28;20077;-77
2021/08/13 11:50:01;;;;;;;1.48;0.10;;;22.60;90.30;;;;;;5078554;28;20035;-77
2021/08/13 11:52:27;;;;;;;5.22;0.32;;;22.60;92.40;;;;;;5096943;28;20024;-77
2021/08/13 11:54:53;;;;;;;2.85;0.35;;;22.80;92.30;;;;;;5096883;28;20099;-77
2021/08/13 11:57:21;;;;;;;3.83;0.32;;;23.00;92.80;;;;;;5078578;28;20481;-79
2021/08/13 11:59:51;;;;;;;5.47;0.67;;;23.00;90.30;;;;;;5078905;28;20425;-79
2021/08/13 12:02:28;;;;;;;7.50;0.45;;;23.10;92.00;;;;;;5096662;28;20029;-77
2021/08/13 12:05:07;;;;;;;2.30;0.25;;;23.20;91.40;;;;;;5078563;28;20024;-78
2021/08/13 12:07:33;;;;;;;5.03;0.60;;;23.10;90.50;;;;;;5078810;28;20024;-79
2021/08/13 12:10:09;;;;;;;3.00;0.45;;;22.80;92.80;;;;;;5079543;28;20386;-79
2021/08/13 12:12:35;;;;;;;1.88;0.10;;;22.60;91.30;;;;;;5097593;28;20032;-78
2021/08/13 12:15:00;;;;;;;5.55;0.15;;;22.60;92.60;;;;;;5097437;28;20500;-79
2021/08/13 12:17:26;;;;;;;2.60;0.00;;;22.60;93.40;;;;;;5097204;28;20024;-79
2021/08/13 12:19:53;;;;;;;2.83;0.17;;;22.70;92.60;;;;;;5096765;28;20023;-79
2021/08/13 12:22:30;;;;;;;3.45;0.63;;;22.80;93.80;;;;;;5078979;28;20017;-79
2021/08/13 12:24:55;;;;;;;2.70;0.70;;;22.90;92.40;;;;;;5079006;28;20045;-79
2021/08/13 12:27:36;;;;;;;5.55;0.28;;;22.70;93.90;;;;;;5077984;28;20016;-78
2021/08/13 12:30:03;;;;;;;1.25;0.30;;;22.70;92.70;;;;;;5096416;28;20020;-79
2021/08/13 12:32:37;;;;;;;2.90;0.20;;;22.90;92.90;;;;;;5095677;28;20024;-76
2021/08/13 12:35:03;;;;;;;3.83;0.20;;;23.00;95.80;;;;;;5077871;28;20401;-76
2021/08/13 12:37:29;;;;;;;1.85;0.22;;;23.00;93.50;;;;;;5077781;28;20097;-77
2021/08/13 12:39:59;;;;;;;5.15;0.10;;;23.20;94.60;;;;;;5095673;28;20021;-75
2021/08/13 12:42:25;;;;;;;4.90;0.30;;;23.40;91.50;;;;;;5077608;28;20043;-78
2021/08/13 12:44:51;;;;;;;1.58;0.10;;;23.30;91.00;;;;;;5077822;28;20378;-78
2021/08/13 12:47:17;;;;;;;3.95;0.35;;;23.10;90.60;;;;;;5096621;28;20022;-77